sensor_id;sensor_type;location;lat;lon;timestamp;temperature;humidity
19728;DHT22;10015;52.530;13.390;2023-03-01T00:02:01;3.60;99.90
19728;DHT22;10015;52.530;13.390;2023-03-01T00:04:27;3.60;99.90
19728;DHT22;10015;52.530;13.390;2023-03-01T00:06:54;3.60;99.90
19728;DHT22;10015;52.530;13.390;2023-03-01T00:09:20;3.60;99.90
19728;DHT22;10015;52.530;13.390;2023-03-01T00:11:46;3.50;99.90
19728;DHT22;10015;52.530;13.390;2023-03-01T00:14:12;3.50;99.90
19728;DHT22;10015;52.530;13.390;2023-03-01T00:16:40;3.50;99.90
19728;DHT22;10015;52.530;13.390;2023-03-01T00:19:15;3.50;99.90
19728;DHT22;10015;52.530;13.390;2023-03-01T00:21:41;3.40;99.90
19728;DHT22;10015;52.530;13.390;2023-03-01T00:24:08;3.40;99.90
19728;DHT22;10015;52.530;13.390;2023-03-01T00:26:34;3.40;99.90
19728;DHT22;10015;52.530;13.390;2023-03-01T00:29:00;3.40;99.90
19728;DHT22;10015;52.530;13.390;2023-03-01T00:31:29;3.40;99.90
19728;DHT22;10015;52.530;13.390;2023-03-01T00:33:58;3.40;99.90
19728;DHT22;10015;52.530;13.390;2023-03-01T00:36:30;3.40;99.90
19728;DHT22;10015;52.530;13.390;2023-03-01T00:38:57;3.30;99.90
19728;DHT22;10015;52.530;13.390;2023-03-01T00:41:23;3.30;99.90
19728;DHT22;10015;52.530;13.390;2023-03-01T00:43:52;3.30;99.90
19728;DHT22;10015;52.530;13.390;2023-03-01T00:46:21;3.30;99.90
19728;DHT22;10015;52.530;13.390;2023-03-01T00:48:48;3.30;99.90
19728;DHT22;10015;52.530;13.390;2023-03-01T00:51:17;3.20;99.90
19728;DHT22;10015;52.530;13.390;2023-03-01T00:53:44;3.20;99.90
19728;DHT22;10015;52.530;13.390;2023-03-01T00:56:12;3.20;99.90
19728;DHT22;10015;52.530;13.390;2023-03-01T00:58:38;3.20;99.90
19728;DHT22;10015;52.530;13.390;2023-03-01T01:01:13;3.20;99.90
19728;DHT22;10015;52.530;13.390;2023-03-01T01:03:54;3.10;99.90
19728;DHT22;10015;52.530;13.390;2023-03-01T01:06:29;3.10;99.90
19728;DHT22;10015;52.530;13.390;2023-03-01T01:08:55;3.10;99.90
19728;DHT22;10015;52.530;13.390;2023-03-01T01:11:24;3.10;99.90
19728;DHT22;10015;52.530;13.390;2023-03-01T01:13:51;3.10;99.90
19728;DHT22;10015;52.530;13.390;2023-03-01T01:16:18;3.10;99.90
19728;DHT22;10015;52.530;13.390;2023-03-01T01:18:44;3.10;99.90
19728;DHT22;10015;52.530;13.390;2023-03-01T01:21:13;3.10;99.90
19728;DHT22;10015;52.530;13.390;2023-03-01T01:23:40;3.10;99.90
19728;DHT22;10015;52.530;13.390;2023-03-01T01:26:10;3.10;99.90
19728;DHT22;10015;52.530;13.390;2023-03-01T01:28:37;3.00;99.90
19728;DHT22;10015;52.530;13.390;2023-03-01T01:31:04;3.00;99.90
19728;DHT22;10015;52.530;13.390;2023-03-01T01:33:30;3.00;99.90
19728;DHT22;10015;52.530;13.390;2023-03-01T01:35:56;2.90;99.90
19728;DHT22;10015;52.530;13.390;2023-03-01T01:38:23;2.90;99.90
19728;DHT22;10015;52.530;13.390;2023-03-01T01:40:50;2.90;99.90
19728;DHT22;10015;52.530;13.390;2023-03-01T01:45:47;2.90;99.90
19728;DHT22;10015;52.530;13.390;2023-03-01T01:48:18;2.90;99.90
19728;DHT22;10015;52.530;13.390;2023-03-01T01:50:50;2.90;99.90
19728;DHT22;10015;52.530;13.390;2023-03-01T01:53:19;2.90;99.90
19728;DHT22;10015;52.530;13.390;2023-03-01T01:55:49;2.80;99.90
19728;DHT22;10015;52.530;13.390;2023-03-01T01:58:19;2.80;99.90
19728;DHT22;10015;52.530;13.390;2023-03-01T02:00:47;2.80;99.90
19728;DHT22;10015;52.530;13.390;2023-03-01T02:03:26;2.80;99.90
19728;DHT22;10015;52.530;13.390;2023-03-01T02:06:07;2.80;99.90
19728;DHT22;10015;52.530;13.390;2023-03-01T02:08:39;2.80;99.90
19728;DHT22;10015;52.530;13.390;2023-03-01T02:11:08;2.80;99.90
19728;DHT22;10015;52.530;13.390;2023-03-01T02:13:34;2.80;99.90
19728;DHT22;10015;52.530;13.390;2023-03-01T02:16:19;2.80;99.90
19728;DHT22;10015;52.530;13.390;2023-03-01T02:18:46;2.80;99.90
19728;DHT22;10015;52.530;13.390;2023-03-01T02:24:10;2.80;99.90
19728;DHT22;10015;52.530;13.390;2023-03-01T02:26:47;2.80;99.90
19728;DHT22;10015;52.530;13.390;2023-03-01T02:29:16;2.80;99.90
19728;DHT22;10015;52.530;13.390;2023-03-01T02:31:42;2.80;99.90
19728;DHT22;10015;52.530;13.390;2023-03-01T02:34:20;2.80;99.90
19728;DHT22;10015;52.530;13.390;2023-03-01T02:36:53;2.80;99.90
19728;DHT22;10015;52.530;13.390;2023-03-01T02:39:25;2.80;99.90
19728;DHT22;10015;52.530;13.390;2023-03-01T02:41:54;2.80;99.90
19728;DHT22;10015;52.530;13.390;2023-03-01T02:44:22;2.80;99.90
19728;DHT22;10015;52.530;13.390;2023-03-01T02:46:52;2.80;99.90
19728;DHT22;10015;52.530;13.390;2023-03-01T02:49:26;2.70;99.90
19728;DHT22;10015;52.530;13.390;2023-03-01T02:54:33;2.70;99.90
19728;DHT22;10015;52.530;13.390;2023-03-01T02:57:02;2.70;99.90
19728;DHT22;10015;52.530;13.390;2023-03-01T02:59:33;2.70;99.90
19728;DHT22;10015;52.530;13.390;2023-03-01T03:02:07;2.70;99.90
19728;DHT22;10015;52.530;13.390;2023-03-01T03:04:33;2.70;99.90
19728;DHT22;10015;52.530;13.390;2023-03-01T03:06:59;2.70;99.90
19728;DHT22;10015;52.530;13.390;2023-03-01T03:09:25;2.60;99.90
19728;DHT22;10015;52.530;13.390;2023-03-01T03:11:51;2.60;99.90
19728;DHT22;10015;52.530;13.390;2023-03-01T03:14:17;2.60;99.90
19728;DHT22;10015;52.530;13.390;2023-03-01T03:16:48;2.60;99.90
19728;DHT22;10015;52.530;13.390;2023-03-01T03:19:15;2.60;99.90
19728;DHT22;10015;52.530;13.390;2023-03-01T03:21:42;2.60;99.90
19728;DHT22;10015;52.530;13.390;2023-03-01T03:24:08;2.50;99.90
19728;DHT22;10015;52.530;13.390;2023-03-01T03:26:34;2.50;99.90
19728;DHT22;10015;52.530;13.390;2023-03-01T03:29:00;2.50;99.90
19728;DHT22;10015;52.530;13.390;2023-03-01T03:31:27;2.50;99.90
19728;DHT22;10015;52.530;13.390;2023-03-01T03:33:53;2.50;99.90
19728;DHT22;10015;52.530;13.390;2023-03-01T03:36:21;2.50;99.90
19728;DHT22;10015;52.530;13.390;2023-03-01T03:38:48;2.50;99.90
19728;DHT22;10015;52.530;13.390;2023-03-01T03:41:15;2.50;99.90
19728;DHT22;10015;52.530;13.390;2023-03-01T03:43:42;2.50;99.90
19728;DHT22;10015;52.530;13.390;2023-03-01T03:46:10;2.50;99.90
19728;DHT22;10015;52.530;13.390;2023-03-01T03:48:39;2.40;99.90
19728;DHT22;10015;52.530;13.390;2023-03-01T03:51:06;2.50;99.90
19728;DHT22;10015;52.530;13.390;2023-03-01T03:53:32;2.40;99.90
19728;DHT22;10015;52.530;13.390;2023-03-01T03:56:01;2.40;99.90
19728;DHT22;10015;52.530;13.390;2023-03-01T03:58:27;2.40;99.90
19728;DHT22;10015;52.530;13.390;2023-03-01T04:00:55;2.40;99.90
19728;DHT22;10015;52.530;13.390;2023-03-01T04:03:23;2.40;99.90
19728;DHT22;10015;52.530;13.390;2023-03-01T04:05:50;2.30;99.90
19728;DHT22;10015;52.530;13.390;2023-03-01T04:08:20;2.30;99.90
19728;DHT22;10015;52.530;13.390;2023-03-01T04:10:50;2.30;99.90
19728;DHT22;10015;52.530;13.390;2023-03-01T04:13:19;2.30;99.90
19728;DHT22;10015;52.530;13.390;2023-03-01T04:15:54;2.30;99.90
19728;DHT22;10015;52.530;13.390;2023-03-01T04:18:22;2.30;99.90
19728;DHT22;10015;52.530;13.390;2023-03-01T04:20:49;2.20;99.90
19728;DHT22;10015;52.530;13.390;2023-03-01T04:23:19;2.30;99.90
19728;DHT22;10015;52.530;13.390;2023-03-01T04:30:57;2.20;99.90
19728;DHT22;10015;52.530;13.390;2023-03-01T04:33:25;2.20;99.90
19728;DHT22;10015;52.530;13.390;2023-03-01T04:35:51;2.20;99.90
19728;DHT22;10015;52.530;13.390;2023-03-01T04:38:17;2.30;99.90
19728;DHT22;10015;52.530;13.390;2023-03-01T04:40:44;2.30;99.90
19728;DHT22;10015;52.530;13.390;2023-03-01T04:43:11;2.20;99.90
19728;DHT22;10015;52.530;13.390;2023-03-01T04:45:38;2.20;99.90
19728;DHT22;10015;52.530;13.390;2023-03-01T04:48:04;2.20;99.90
19728;DHT22;10015;52.530;13.390;2023-03-01T04:50:30;2.20;99.90
19728;DHT22;10015;52.530;13.390;2023-03-01T04:52:56;2.20;99.90
19728;DHT22;10015;52.530;13.390;2023-03-01T04:55:28;2.20;99.90
19728;DHT22;10015;52.530;13.390;2023-03-01T04:57:58;2.30;99.90
19728;DHT22;10015;52.530;13.390;2023-03-01T05:00:24;2.30;99.90
19728;DHT22;10015;52.530;13.390;2023-03-01T05:02:53;2.30;99.90
19728;DHT22;10015;52.530;13.390;2023-03-01T05:05:27;2.20;99.90
19728;DHT22;10015;52.530;13.390;2023-03-01T05:07:55;2.20;99.90
19728;DHT22;10015;52.530;13.390;2023-03-01T05:10:21;2.20;99.90
19728;DHT22;10015;52.530;13.390;2023-03-01T05:12:47;2.20;99.90
19728;DHT22;10015;52.530;13.390;2023-03-01T05:15:13;2.20;99.90
19728;DHT22;10015;52.530;13.390;2023-03-01T05:17:39;2.20;99.90
19728;DHT22;10015;52.530;13.390;2023-03-01T05:20:05;2.20;99.90
19728;DHT22;10015;52.530;13.390;2023-03-01T05:22:35;2.20;99.90
19728;DHT22;10015;52.530;13.390;2023-03-01T05:25:02;2.10;99.90
19728;DHT22;10015;52.530;13.390;2023-03-01T05:27:29;2.10;99.90
19728;DHT22;10015;52.530;13.390;2023-03-01T05:29:55;2.10;99.90
19728;DHT22;10015;52.530;13.390;2023-03-01T05:32:22;2.10;99.90
19728;DHT22;10015;52.530;13.390;2023-03-01T05:34:47;2.10;99.90
19728;DHT22;10015;52.530;13.390;2023-03-01T05:37:14;2.10;99.90
19728;DHT22;10015;52.530;13.390;2023-03-01T05:39:40;2.10;99.90
19728;DHT22;10015;52.530;13.390;2023-03-01T05:42:10;2.10;99.90
19728;DHT22;10015;52.530;13.390;2023-03-01T05:44:37;2.10;99.90
19728;DHT22;10015;52.530;13.390;2023-03-01T05:47:02;2.10;99.90
19728;DHT22;10015;52.530;13.390;2023-03-01T05:49:28;2.10;99.90
19728;DHT22;10015;52.530;13.390;2023-03-01T05:51:55;2.10;99.90
19728;DHT22;10015;52.530;13.390;2023-03-01T05:54:22;2.10;99.90
19728;DHT22;10015;52.530;13.390;2023-03-01T05:56:48;2.10;99.90
19728;DHT22;10015;52.530;13.390;2023-03-01T05:59:14;2.10;99.90
19728;DHT22;10015;52.530;13.390;2023-03-01T06:01:42;2.10;99.90
19728;DHT22;10015;52.530;13.390;2023-03-01T06:04:08;2.10;99.90
19728;DHT22;10015;52.530;13.390;2023-03-01T06:06:35;2.10;99.90
19728;DHT22;10015;52.530;13.390;2023-03-01T06:09:04;2.10;99.90
19728;DHT22;10015;52.530;13.390;2023-03-01T06:11:30;2.10;99.90
19728;DHT22;10015;52.530;13.390;2023-03-01T06:13:56;2.10;99.90
19728;DHT22;10015;52.530;13.390;2023-03-01T06:16:21;2.20;99.90
19728;DHT22;10015;52.530;13.390;2023-03-01T06:18:47;2.20;99.90
19728;DHT22;10015;52.530;13.390;2023-03-01T06:21:13;2.20;99.90
19728;DHT22;10015;52.530;13.390;2023-03-01T06:23:39;2.20;99.90
19728;DHT22;10015;52.530;13.390;2023-03-01T06:26:07;2.20;99.90
19728;DHT22;10015;52.530;13.390;2023-03-01T06:28:33;2.20;99.90
19728;DHT22;10015;52.530;13.390;2023-03-01T06:30:59;2.30;99.90
19728;DHT22;10015;52.530;13.390;2023-03-01T06:33:25;2.30;99.90
19728;DHT22;10015;52.530;13.390;2023-03-01T06:35:54;2.40;99.90
19728;DHT22;10015;52.530;13.390;2023-03-01T06:38:20;2.40;99.90
19728;DHT22;10015;52.530;13.390;2023-03-01T06:40:52;2.40;99.90
19728;DHT22;10015;52.530;13.390;2023-03-01T06:43:18;2.40;99.90
19728;DHT22;10015;52.530;13.390;2023-03-01T06:45:44;2.50;99.90
19728;DHT22;10015;52.530;13.390;2023-03-01T06:48:11;2.50;99.90
19728;DHT22;10015;52.530;13.390;2023-03-01T06:50:37;2.50;99.90
19728;DHT22;10015;52.530;13.390;2023-03-01T06:53:03;2.50;99.90
19728;DHT22;10015;52.530;13.390;2023-03-01T06:55:30;2.50;99.90
19728;DHT22;10015;52.530;13.390;2023-03-01T06:58:00;2.60;99.90
19728;DHT22;10015;52.530;13.390;2023-03-01T07:00:27;2.60;99.90
19728;DHT22;10015;52.530;13.390;2023-03-01T07:02:53;2.60;99.90
19728;DHT22;10015;52.530;13.390;2023-03-01T07:05:19;2.70;99.90
19728;DHT22;10015;52.530;13.390;2023-03-01T07:07:45;2.70;99.90
19728;DHT22;10015;52.530;13.390;2023-03-01T07:10:12;2.70;99.90
19728;DHT22;10015;52.530;13.390;2023-03-01T07:12:38;2.80;99.90
19728;DHT22;10015;52.530;13.390;2023-03-01T07:15:04;2.90;99.90
19728;DHT22;10015;52.530;13.390;2023-03-01T07:17:30;3.00;99.90
19728;DHT22;10015;52.530;13.390;2023-03-01T07:19:56;3.00;99.90
19728;DHT22;10015;52.530;13.390;2023-03-01T07:22:23;3.10;99.90
19728;DHT22;10015;52.530;13.390;2023-03-01T07:24:48;3.20;99.90
19728;DHT22;10015;52.530;13.390;2023-03-01T07:27:14;3.20;99.90
19728;DHT22;10015;52.530;13.390;2023-03-01T07:29:40;3.20;99.90
19728;DHT22;10015;52.530;13.390;2023-03-01T07:32:06;3.30;99.90
19728;DHT22;10015;52.530;13.390;2023-03-01T07:34:32;3.40;99.90
19728;DHT22;10015;52.530;13.390;2023-03-01T07:36:58;3.40;99.90
19728;DHT22;10015;52.530;13.390;2023-03-01T07:39:24;3.50;99.90
19728;DHT22;10015;52.530;13.390;2023-03-01T07:41:50;3.50;99.90
19728;DHT22;10015;52.530;13.390;2023-03-01T07:44:20;3.60;99.90
19728;DHT22;10015;52.530;13.390;2023-03-01T07:46:46;3.70;99.90
19728;DHT22;10015;52.530;13.390;2023-03-01T07:49:12;3.90;99.90
19728;DHT22;10015;52.530;13.390;2023-03-01T07:51:38;4.10;99.90
19728;DHT22;10015;52.530;13.390;2023-03-01T07:54:04;4.30;99.90
19728;DHT22;10015;52.530;13.390;2023-03-01T07:56:30;4.50;99.90
19728;DHT22;10015;52.530;13.390;2023-03-01T07:58:56;4.80;99.90
19728;DHT22;10015;52.530;13.390;2023-03-01T08:01:24;5.10;99.90
19728;DHT22;10015;52.530;13.390;2023-03-01T08:03:51;5.40;99.90
19728;DHT22;10015;52.530;13.390;2023-03-01T08:06:17;5.90;99.90
19728;DHT22;10015;52.530;13.390;2023-03-01T08:08:44;6.30;99.90
19728;DHT22;10015;52.530;13.390;2023-03-01T08:11:12;6.80;99.90
19728;DHT22;10015;52.530;13.390;2023-03-01T08:13:38;7.30;99.90
19728;DHT22;10015;52.530;13.390;2023-03-01T08:16:10;7.70;99.90
19728;DHT22;10015;52.530;13.390;2023-03-01T08:18:37;8.00;99.90
19728;DHT22;10015;52.530;13.390;2023-03-01T08:23:29;8.50;99.90
19728;DHT22;10015;52.530;13.390;2023-03-01T08:26:03;8.80;99.90
19728;DHT22;10015;52.530;13.390;2023-03-01T08:28:29;9.00;99.90
19728;DHT22;10015;52.530;13.390;2023-03-01T08:30:55;9.30;99.90
19728;DHT22;10015;52.530;13.390;2023-03-01T08:33:21;9.60;99.90
19728;DHT22;10015;52.530;13.390;2023-03-01T08:35:47;9.90;99.90
19728;DHT22;10015;52.530;13.390;2023-03-01T08:38:13;10.20;99.90
19728;DHT22;10015;52.530;13.390;2023-03-01T08:40:42;10.60;99.90
19728;DHT22;10015;52.530;13.390;2023-03-01T08:43:08;10.90;99.90
19728;DHT22;10015;52.530;13.390;2023-03-01T08:45:34;11.10;99.90
19728;DHT22;10015;52.530;13.390;2023-03-01T08:48:00;11.40;99.90
19728;DHT22;10015;52.530;13.390;2023-03-01T08:50:26;11.70;99.90
19728;DHT22;10015;52.530;13.390;2023-03-01T08:52:52;12.00;99.90
19728;DHT22;10015;52.530;13.390;2023-03-01T08:55:18;12.30;99.90
19728;DHT22;10015;52.530;13.390;2023-03-01T08:57:44;12.60;99.90
19728;DHT22;10015;52.530;13.390;2023-03-01T09:00:11;12.90;99.90
19728;DHT22;10015;52.530;13.390;2023-03-01T09:02:37;13.10;99.90
19728;DHT22;10015;52.530;13.390;2023-03-01T09:05:05;13.30;99.40
19728;DHT22;10015;52.530;13.390;2023-03-01T09:07:31;13.50;98.70
19728;DHT22;10015;52.530;13.390;2023-03-01T09:09:57;13.70;97.80
19728;DHT22;10015;52.530;13.390;2023-03-01T09:12:23;13.80;97.10
19728;DHT22;10015;52.530;13.390;2023-03-01T09:14:50;14.00;96.70
19728;DHT22;10015;52.530;13.390;2023-03-01T09:17:16;14.20;96.80
19728;DHT22;10015;52.530;13.390;2023-03-01T09:19:42;14.40;95.50
19728;DHT22;10015;52.530;13.390;2023-03-01T09:22:09;14.40;95.00
19728;DHT22;10015;52.530;13.390;2023-03-01T09:24:35;14.10;93.00
19728;DHT22;10015;52.530;13.390;2023-03-01T09:27:01;13.80;92.10
19728;DHT22;10015;52.530;13.390;2023-03-01T09:29:27;13.60;94.10
19728;DHT22;10015;52.530;13.390;2023-03-01T09:31:54;13.70;94.20
19728;DHT22;10015;52.530;13.390;2023-03-01T09:34:22;13.80;93.90
19728;DHT22;10015;52.530;13.390;2023-03-01T09:36:50;14.00;93.30
19728;DHT22;10015;52.530;13.390;2023-03-01T09:39:16;14.00;92.80
19728;DHT22;10015;52.530;13.390;2023-03-01T09:44:40;13.90;92.20
19728;DHT22;10015;52.530;13.390;2023-03-01T09:47:20;13.90;92.50
19728;DHT22;10015;52.530;13.390;2023-03-01T09:52:36;13.60;92.50
19728;DHT22;10015;52.530;13.390;2023-03-01T09:55:20;13.50;92.60
19728;DHT22;10015;52.530;13.390;2023-03-01T09:58:37;13.40;92.00
19728;DHT22;10015;52.530;13.390;2023-03-01T10:01:35;13.20;91.60
19728;DHT22;10015;52.530;13.390;2023-03-01T10:06:35;13.10;90.90
19728;DHT22;10015;52.530;13.390;2023-03-01T10:09:12;13.10;91.20
19728;DHT22;10015;52.530;13.390;2023-03-01T10:11:42;13.10;91.90
19728;DHT22;10015;52.530;13.390;2023-03-01T10:16:57;13.30;91.10
19728;DHT22;10015;52.530;13.390;2023-03-01T10:19:31;13.30;91.50
19728;DHT22;10015;52.530;13.390;2023-03-01T10:22:03;13.10;90.80
19728;DHT22;10015;52.530;13.390;2023-03-01T10:24:34;12.90;90.40
19728;DHT22;10015;52.530;13.390;2023-03-01T10:27:09;12.70;90.00
19728;DHT22;10015;52.530;13.390;2023-03-01T10:29:46;12.60;99.90
19728;DHT22;10015;52.530;13.390;2023-03-01T10:32:14;12.70;94.80
19728;DHT22;10015;52.530;13.390;2023-03-01T10:34:41;12.90;91.20
19728;DHT22;10015;52.530;13.390;2023-03-01T10:40:04;12.80;91.80
19728;DHT22;10015;52.530;13.390;2023-03-01T10:42:46;12.80;90.50
19728;DHT22;10015;52.530;13.390;2023-03-01T10:47:45;12.80;90.60
19728;DHT22;10015;52.530;13.390;2023-03-01T10:50:23;12.90;90.00
19728;DHT22;10015;52.530;13.390;2023-03-01T10:53:00;13.10;86.00
19728;DHT22;10015;52.530;13.390;2023-03-01T10:55:37;13.00;83.20
19728;DHT22;10015;52.530;13.390;2023-03-01T10:58:08;12.70;84.70
19728;DHT22;10015;52.530;13.390;2023-03-01T11:00:52;12.40;83.80
19728;DHT22;10015;52.530;13.390;2023-03-01T11:03:27;12.10;86.80
19728;DHT22;10015;52.530;13.390;2023-03-01T11:08:39;12.30;89.30
19728;DHT22;10015;52.530;13.390;2023-03-01T11:13:49;12.30;86.50
19728;DHT22;10015;52.530;13.390;2023-03-01T11:16:23;12.10;87.40
19728;DHT22;10015;52.530;13.390;2023-03-01T11:19:19;12.30;90.20
19728;DHT22;10015;52.530;13.390;2023-03-01T11:24:50;12.70;84.60
19728;DHT22;10015;52.530;13.390;2023-03-01T11:27:21;12.90;78.40
19728;DHT22;10015;52.530;13.390;2023-03-01T11:29:59;12.90;77.40
19728;DHT22;10015;52.530;13.390;2023-03-01T11:32:30;12.60;76.80
19728;DHT22;10015;52.530;13.390;2023-03-01T11:35:15;12.70;78.80
19728;DHT22;10015;52.530;13.390;2023-03-01T11:40:43;12.50;78.60
19728;DHT22;10015;52.530;13.390;2023-03-01T11:43:28;12.70;79.60
19728;DHT22;10015;52.530;13.390;2023-03-01T11:45:58;12.70;78.40
19728;DHT22;10015;52.530;13.390;2023-03-01T11:54:46;12.30;78.30
19728;DHT22;10015;52.530;13.390;2023-03-01T12:00:13;12.30;76.30
19728;DHT22;10015;52.530;13.390;2023-03-01T12:06:15;12.60;76.60
19728;DHT22;10015;52.530;13.390;2023-03-01T12:16:34;12.90;76.20
19728;DHT22;10015;52.530;13.390;2023-03-01T12:19:27;12.90;77.20
19728;DHT22;10015;52.530;13.390;2023-03-01T12:24:48;13.40;76.40
19728;DHT22;10015;52.530;13.390;2023-03-01T12:27:30;13.40;74.80
19728;DHT22;10015;52.530;13.390;2023-03-01T12:33:13;13.20;73.30
19728;DHT22;10015;52.530;13.390;2023-03-01T12:38:31;13.20;73.40
19728;DHT22;10015;52.530;13.390;2023-03-01T12:44:51;13.60;74.00
19728;DHT22;10015;52.530;13.390;2023-03-01T12:50:20;13.40;70.50
19728;DHT22;10015;52.530;13.390;2023-03-01T12:52:48;13.30;70.50
19728;DHT22;10015;52.530;13.390;2023-03-01T12:58:37;13.20;71.10
19728;DHT22;10015;52.530;13.390;2023-03-01T13:07:11;13.30;70.20
19728;DHT22;10015;52.530;13.390;2023-03-01T13:20:27;12.90;70.10
19728;DHT22;10015;52.530;13.390;2023-03-01T13:23:08;13.10;69.90
19728;DHT22;10015;52.530;13.390;2023-03-01T13:25:35;13.20;70.40
19728;DHT22;10015;52.530;13.390;2023-03-01T13:33:50;13.10;71.60
19728;DHT22;10015;52.530;13.390;2023-03-01T13:39:03;12.70;71.00
19728;DHT22;10015;52.530;13.390;2023-03-01T13:46:48;12.40;69.90
19728;DHT22;10015;52.530;13.390;2023-03-01T13:49:18;12.50;70.50
19728;DHT22;10015;52.530;13.390;2023-03-01T13:51:49;12.70;69.60
19728;DHT22;10015;52.530;13.390;2023-03-01T13:54:20;12.80;69.70
19728;DHT22;10015;52.530;13.390;2023-03-01T13:56:50;12.60;68.10
19728;DHT22;10015;52.530;13.390;2023-03-01T13:59:21;12.50;69.00
19728;DHT22;10015;52.530;13.390;2023-03-01T14:01:58;12.50;68.80
19728;DHT22;10015;52.530;13.390;2023-03-01T14:04:32;12.30;69.10
19728;DHT22;10015;52.530;13.390;2023-03-01T14:07:19;12.10;69.20
19728;DHT22;10015;52.530;13.390;2023-03-01T14:09:48;12.00;70.30
19728;DHT22;10015;52.530;13.390;2023-03-01T14:20:24;11.90;70.70
19728;DHT22;10015;52.530;13.390;2023-03-01T14:22:57;12.10;72.40
19728;DHT22;10015;52.530;13.390;2023-03-01T14:25:31;12.10;71.80
19728;DHT22;10015;52.530;13.390;2023-03-01T14:28:04;12.00;72.60
19728;DHT22;10015;52.530;13.390;2023-03-01T14:31:01;11.90;73.30
19728;DHT22;10015;52.530;13.390;2023-03-01T14:33:32;11.80;74.00
19728;DHT22;10015;52.530;13.390;2023-03-01T14:36:03;11.80;74.40
19728;DHT22;10015;52.530;13.390;2023-03-01T14:38:46;11.80;74.60
19728;DHT22;10015;52.530;13.390;2023-03-01T14:41:24;11.70;78.50
19728;DHT22;10015;52.530;13.390;2023-03-01T14:43:56;11.60;76.80
19728;DHT22;10015;52.530;13.390;2023-03-01T14:46:36;11.60;77.90
19728;DHT22;10015;52.530;13.390;2023-03-01T14:49:11;11.50;77.50
19728;DHT22;10015;52.530;13.390;2023-03-01T14:51:39;11.50;77.70
19728;DHT22;10015;52.530;13.390;2023-03-01T14:54:21;11.50;78.60
19728;DHT22;10015;52.530;13.390;2023-03-01T14:56:47;11.10;79.90
19728;DHT22;10015;52.530;13.390;2023-03-01T14:59:13;11.00;80.50
19728;DHT22;10015;52.530;13.390;2023-03-01T15:01:41;11.00;82.10
19728;DHT22;10015;52.530;13.390;2023-03-01T15:04:11;11.00;81.40
19728;DHT22;10015;52.530;13.390;2023-03-01T15:06:38;10.80;81.50
19728;DHT22;10015;52.530;13.390;2023-03-01T15:09:04;10.80;81.50
19728;DHT22;10015;52.530;13.390;2023-03-01T15:11:32;10.90;81.40
19728;DHT22;10015;52.530;13.390;2023-03-01T15:13:59;10.90;81.80
19728;DHT22;10015;52.530;13.390;2023-03-01T15:16:26;10.90;81.60
19728;DHT22;10015;52.530;13.390;2023-03-01T15:19:05;10.80;82.80
19728;DHT22;10015;52.530;13.390;2023-03-01T15:21:36;10.70;82.40
19728;DHT22;10015;52.530;13.390;2023-03-01T15:29:22;10.60;82.70
19728;DHT22;10015;52.530;13.390;2023-03-01T15:31:58;10.50;83.90
19728;DHT22;10015;52.530;13.390;2023-03-01T15:34:26;10.30;83.20
19728;DHT22;10015;52.530;13.390;2023-03-01T15:36:54;10.40;83.50
19728;DHT22;10015;52.530;13.390;2023-03-01T15:45:20;10.20;83.80
19728;DHT22;10015;52.530;13.390;2023-03-01T15:47:48;10.20;84.10
19728;DHT22;10015;52.530;13.390;2023-03-01T15:50:25;10.20;84.40
19728;DHT22;10015;52.530;13.390;2023-03-01T15:52:51;10.10;84.50
19728;DHT22;10015;52.530;13.390;2023-03-01T15:55:29;10.00;84.60
19728;DHT22;10015;52.530;13.390;2023-03-01T15:58:13;10.00;84.40
19728;DHT22;10015;52.530;13.390;2023-03-01T16:00:40;9.80;85.70
19728;DHT22;10015;52.530;13.390;2023-03-01T16:03:08;9.70;86.10
19728;DHT22;10015;52.530;13.390;2023-03-01T16:05:36;9.70;86.40
19728;DHT22;10015;52.530;13.390;2023-03-01T16:08:04;9.60;86.60
19728;DHT22;10015;52.530;13.390;2023-03-01T16:10:32;9.60;87.00
19728;DHT22;10015;52.530;13.390;2023-03-01T16:12:59;9.50;86.80
19728;DHT22;10015;52.530;13.390;2023-03-01T16:15:32;9.40;87.20
19728;DHT22;10015;52.530;13.390;2023-03-01T16:18:02;9.40;87.50
19728;DHT22;10015;52.530;13.390;2023-03-01T16:20:29;9.40;87.70
19728;DHT22;10015;52.530;13.390;2023-03-01T16:22:58;9.20;90.70
19728;DHT22;10015;52.530;13.390;2023-03-01T16:25:25;9.10;91.90
19728;DHT22;10015;52.530;13.390;2023-03-01T16:27:51;9.10;92.60
19728;DHT22;10015;52.530;13.390;2023-03-01T16:30:20;9.10;92.40
19728;DHT22;10015;52.530;13.390;2023-03-01T16:32:47;9.20;90.50
19728;DHT22;10015;52.530;13.390;2023-03-01T16:35:16;9.30;90.00
19728;DHT22;10015;52.530;13.390;2023-03-01T16:37:42;9.30;90.10
19728;DHT22;10015;52.530;13.390;2023-03-01T16:40:26;9.20;90.20
19728;DHT22;10015;52.530;13.390;2023-03-01T16:42:52;9.20;90.30
19728;DHT22;10015;52.530;13.390;2023-03-01T16:45:19;9.10;90.50
19728;DHT22;10015;52.530;13.390;2023-03-01T16:47:45;9.10;90.60
19728;DHT22;10015;52.530;13.390;2023-03-01T16:50:12;9.10;90.80
19728;DHT22;10015;52.530;13.390;2023-03-01T16:52:38;9.00;91.00
19728;DHT22;10015;52.530;13.390;2023-03-01T16:55:06;9.00;91.30
19728;DHT22;10015;52.530;13.390;2023-03-01T16:57:37;9.00;91.40
19728;DHT22;10015;52.530;13.390;2023-03-01T17:00:07;8.90;91.40
19728;DHT22;10015;52.530;13.390;2023-03-01T17:02:35;8.90;91.80
19728;DHT22;10015;52.530;13.390;2023-03-01T17:05:01;8.90;91.50
19728;DHT22;10015;52.530;13.390;2023-03-01T17:07:29;8.80;91.60
19728;DHT22;10015;52.530;13.390;2023-03-01T17:10:12;8.70;91.80
19728;DHT22;10015;52.530;13.390;2023-03-01T17:12:38;8.70;92.00
19728;DHT22;10015;52.530;13.390;2023-03-01T17:15:05;8.70;92.20
19728;DHT22;10015;52.530;13.390;2023-03-01T17:17:32;8.70;92.40
19728;DHT22;10015;52.530;13.390;2023-03-01T17:19:58;8.70;92.90
19728;DHT22;10015;52.530;13.390;2023-03-01T17:22:24;8.60;92.60
19728;DHT22;10015;52.530;13.390;2023-03-01T17:24:54;8.60;92.90
19728;DHT22;10015;52.530;13.390;2023-03-01T17:27:20;8.60;93.10
19728;DHT22;10015;52.530;13.390;2023-03-01T17:29:46;8.50;93.40
19728;DHT22;10015;52.530;13.390;2023-03-01T17:32:13;8.50;93.50
19728;DHT22;10015;52.530;13.390;2023-03-01T17:34:39;8.50;93.80
19728;DHT22;10015;52.530;13.390;2023-03-01T17:37:06;8.40;94.00
19728;DHT22;10015;52.530;13.390;2023-03-01T17:39:36;8.40;94.00
19728;DHT22;10015;52.530;13.390;2023-03-01T17:42:03;8.30;94.30
19728;DHT22;10015;52.530;13.390;2023-03-01T17:44:31;8.30;94.50
19728;DHT22;10015;52.530;13.390;2023-03-01T17:46:59;8.30;94.60
19728;DHT22;10015;52.530;13.390;2023-03-01T17:49:25;8.30;94.80
19728;DHT22;10015;52.530;13.390;2023-03-01T17:51:51;8.20;95.10